Tozeur, Tunisia
Current Conditions -  °F | °C
As of 6:00 AM on Wednesday 26 Nov 2014 (Local Time) from DTTZ Reporting Station
Broken Clouds Broken Clouds  
Wind Chill: 68°   Ceiling: 3000
Heat Index: 68°   Visibility: 5mi
Dew Point: 55°   Wind: 14mph
Humidity: 64%   Direction: 80°E
Pressure: 29.97"   Gusts: NA
Location:  33.92°N, 8.13°E
Report Text: DTTZ 260500Z 08012KT 8000 BKN030 20/13 Q1015 NOSIG
Loading
Personal Weather Stations






























Interactive Weather Map New forecast layout! Learn more

10-Day Weather Forecast

Advertisements
Track Severe Weather on mobile